Time;durP1;ratioP1;P1;durP2;ratioP2;P2;SDS_P1;SDS_P2;PMS_P1;PMS_P2;Temp;Humidity;BMP_temperature;BMP_pressure;BME280_temperature;BME280_humidity;BME280_pressure;Samples;Min_cycle;Max_cycle;Signal;HPM_P1;HPM_P2
2023/08/08 00:00:05;;;;;;;0.00;0.00;;;14.20;99.90;;;;;;5094648;28;20172;-59
2023/08/08 00:02:31;;;;;;;0.00;0.00;;;14.20;99.90;;;;;;5094708;28;20176;-59
2023/08/08 00:04:56;;;;;;;0.00;0.00;;;14.20;99.90;;;;;;5094769;28;20237;-59
2023/08/08 00:07:22;;;;;;;0.00;0.00;;;14.10;99.90;;;;;;5094449;28;20251;-59
2023/08/08 00:09:47;;;;;;;0.00;0.00;;;14.10;99.90;;;;;;5094604;28;20639;-59
2023/08/08 00:12:13;;;;;;;0.00;0.00;;;14.10;99.90;;;;;;5094454;28;20576;-59
2023/08/08 00:14:38;;;;;;;0.00;0.00;;;14.10;99.90;;;;;;5094518;28;20222;-59
2023/08/08 00:17:04;;;;;;;0.00;0.00;;;14.10;99.90;;;;;;5094351;28;20191;-59
2023/08/08 00:19:30;;;;;;;0.00;0.00;;;14.10;99.90;;;;;;5094479;28;20724;-59
2023/08/08 00:21:55;;;;;;;0.00;0.00;;;14.10;99.90;;;;;;5094358;28;20203;-59
2023/08/08 00:24:21;;;;;;;0.00;0.00;;;14.10;99.90;;;;;;5094042;28;20178;-59
2023/08/08 00:26:46;;;;;;;0.00;0.00;;;14.00;99.90;;;;;;5094262;28;20549;-59
2023/08/08 00:29:12;;;;;;;0.00;0.00;;;14.00;99.90;;;;;;5093917;28;20315;-59
2023/08/08 00:31:37;;;;;;;0.00;0.00;;;14.00;99.90;;;;;;5094150;28;20181;-59
2023/08/08 00:34:03;;;;;;;0.00;0.00;;;14.00;99.90;;;;;;5093971;28;20210;-59
2023/08/08 00:36:29;;;;;;;0.00;0.00;;;14.10;99.90;;;;;;5093954;28;20212;-59
2023/08/08 00:38:54;;;;;;;0.00;0.00;;;14.10;99.90;;;;;;5093999;28;20219;-59
2023/08/08 00:41:20;;;;;;;0.00;0.00;;;14.10;99.90;;;;;;5093787;28;20179;-59
2023/08/08 00:43:45;;;;;;;0.00;0.00;;;14.10;99.90;;;;;;5093957;28;20168;-59
2023/08/08 00:46:11;;;;;;;0.00;0.00;;;14.10;99.90;;;;;;5093709;28;20179;-59
2023/08/08 00:48:37;;;;;;;0.00;0.00;;;14.10;99.90;;;;;;5093908;28;20172;-59
2023/08/08 00:51:03;;;;;;;0.00;0.00;;;14.10;99.90;;;;;;5093588;28;20238;-59
2023/08/08 00:53:31;;;;;;;0.00;0.00;;;14.10;99.90;;;;;;5093280;28;20172;-59
2023/08/08 00:55:58;;;;;;;0.00;0.00;;;14.10;99.90;;;;;;5093643;28;20223;-59
2023/08/08 00:58:24;;;;;;;0.00;0.00;;;14.00;99.90;;;;;;5093538;28;20535;-59
2023/08/08 01:00:49;;;;;;;0.00;0.00;;;14.00;99.90;;;;;;5093629;28;20169;-59
2023/08/08 01:03:15;;;;;;;0.00;0.00;;;14.00;99.90;;;;;;5093498;28;20653;-59
2023/08/08 01:05:53;;;;;;;0.00;0.00;;;14.00;99.90;;;;;;5093369;28;20180;-59
2023/08/08 01:08:26;;;;;;;0.00;0.00;;;14.00;99.90;;;;;;5093333;28;20180;-59
2023/08/08 01:10:52;;;;;;;0.00;0.00;;;13.90;99.90;;;;;;5093490;28;20172;-59
2023/08/08 01:13:21;;;;;;;0.00;0.00;;;14.00;99.90;;;;;;5093285;28;20188;-59
2023/08/08 01:15:49;;;;;;;0.00;0.00;;;14.00;99.90;;;;;;5093231;28;20235;-59
2023/08/08 01:18:15;;;;;;;0.00;0.00;;;14.00;99.90;;;;;;5093100;28;20168;-59
2023/08/08 01:20:43;;;;;;;0.00;0.00;;;14.00;99.90;;;;;;5093079;28;20623;-59
2023/08/08 01:23:12;;;;;;;0.00;0.00;;;14.00;99.90;;;;;;5093099;28;20664;-59
2023/08/08 01:25:40;;;;;;;0.00;0.00;;;14.00;99.90;;;;;;5093087;28;20176;-59
2023/08/08 01:28:06;;;;;;;0.00;0.00;;;14.10;99.90;;;;;;5092793;28;20222;-59
2023/08/08 01:30:32;;;;;;;0.00;0.00;;;14.10;99.90;;;;;;5093056;28;20179;-59
2023/08/08 01:32:58;;;;;;;0.00;0.00;;;14.10;99.90;;;;;;5093034;28;20180;-59
2023/08/08 01:35:27;;;;;;;0.00;0.00;;;14.10;99.90;;;;;;5092701;28;20208;-59
2023/08/08 01:37:58;;;;;;;0.10;0.10;;;14.20;99.90;;;;;;5092797;28;20572;-59
2023/08/08 01:40:25;;;;;;;0.00;0.00;;;14.20;99.90;;;;;;5092815;28;20558;-59
2023/08/08 01:42:51;;;;;;;0.00;0.00;;;14.20;99.90;;;;;;5092868;28;20192;-59
2023/08/08 01:45:18;;;;;;;0.00;0.00;;;14.10;99.90;;;;;;5092659;28;20183;-59
2023/08/08 01:47:50;;;;;;;0.00;0.00;;;14.10;99.90;;;;;;5092622;28;20173;-59
2023/08/08 01:50:16;;;;;;;0.00;0.00;;;14.10;99.90;;;;;;5092671;28;20537;-59
2023/08/08 01:52:41;;;;;;;0.00;0.00;;;14.10;99.90;;;;;;5092504;28;20184;-59
2023/08/08 01:55:07;;;;;;;0.00;0.00;;;14.10;99.90;;;;;;5092449;28;20256;-59
2023/08/08 01:57:32;;;;;;;0.00;0.00;;;14.10;99.90;;;;;;5092536;28;20635;-59
2023/08/08 01:59:58;;;;;;;0.00;0.00;;;14.10;99.90;;;;;;5092484;28;20177;-59
2023/08/08 02:02:24;;;;;;;0.00;0.00;;;14.10;99.90;;;;;;5092232;28;20180;-59
2023/08/08 02:04:49;;;;;;;0.00;0.00;;;14.10;99.90;;;;;;5091675;28;20168;-59
2023/08/08 02:07:15;;;;;;;0.00;0.00;;;14.10;99.90;;;;;;5092482;28;20630;-59
2023/08/08 02:09:41;;;;;;;0.00;0.00;;;14.10;99.90;;;;;;5092248;28;20237;-59
2023/08/08 02:12:07;;;;;;;0.00;0.00;;;14.10;99.90;;;;;;5092163;28;20210;-59
2023/08/08 02:14:32;;;;;;;0.00;0.00;;;14.10;99.90;;;;;;5092147;28;20654;-59
2023/08/08 02:16:58;;;;;;;0.00;0.00;;;14.10;99.90;;;;;;5092212;28;20697;-59
2023/08/08 02:19:23;;;;;;;0.00;0.00;;;14.10;99.90;;;;;;5091935;28;20638;-59
2023/08/08 02:21:49;;;;;;;0.00;0.00;;;14.10;99.90;;;;;;5092235;28;20184;-59
2023/08/08 02:24:14;;;;;;;0.00;0.00;;;14.10;99.90;;;;;;5092142;28;20173;-59
2023/08/08 02:26:40;;;;;;;0.05;0.05;;;14.00;99.90;;;;;;5092038;28;20191;-59
2023/08/08 02:29:05;;;;;;;0.00;0.00;;;14.00;99.90;;;;;;5091835;28;20219;-59
2023/08/08 02:31:31;;;;;;;0.00;0.00;;;14.00;99.90;;;;;;5092095;28;20180;-59
2023/08/08 02:33:56;;;;;;;0.00;0.00;;;14.00;99.90;;;;;;5092099;28;20260;-59
2023/08/08 02:36:22;;;;;;;0.00;0.00;;;13.90;99.90;;;;;;5091753;28;20223;-59
2023/08/08 02:38:49;;;;;;;0.00;0.00;;;13.90;99.90;;;;;;5091941;28;20172;-59
2023/08/08 02:41:15;;;;;;;0.00;0.00;;;13.90;99.90;;;;;;5091809;28;20168;-59
2023/08/08 02:43:40;;;;;;;0.00;0.00;;;13.90;99.90;;;;;;5091816;28;20666;-59
2023/08/08 02:46:06;;;;;;;0.00;0.00;;;13.90;99.90;;;;;;5091778;28;20261;-59
2023/08/08 02:48:31;;;;;;;0.00;0.00;;;13.80;99.90;;;;;;5091855;28;20581;-59
2023/08/08 02:50:57;;;;;;;0.00;0.00;;;13.80;99.90;;;;;;5091700;28;20172;-59
2023/08/08 02:53:22;;;;;;;0.00;0.00;;;13.80;99.90;;;;;;5091721;28;20859;-59
2023/08/08 02:55:48;;;;;;;0.00;0.00;;;13.80;99.90;;;;;;5091641;28;20214;-59
2023/08/08 02:58:13;;;;;;;0.00;0.00;;;13.70;99.90;;;;;;5091583;28;20207;-59
2023/08/08 03:00:39;;;;;;;0.00;0.00;;;13.70;99.90;;;;;;5091670;28;20183;-59
2023/08/08 03:03:05;;;;;;;0.00;0.00;;;13.70;99.90;;;;;;5091592;28;20655;-59
2023/08/08 03:05:30;;;;;;;0.00;0.00;;;13.70;99.90;;;;;;5091741;28;20241;-59
2023/08/08 03:07:56;;;;;;;0.00;0.00;;;13.70;99.90;;;;;;5091685;28;20643;-59
2023/08/08 03:10:21;;;;;;;0.00;0.00;;;13.60;99.90;;;;;;5091387;28;20266;-59
2023/08/08 03:12:47;;;;;;;0.00;0.00;;;13.60;99.90;;;;;;5091546;28;20203;-59
2023/08/08 03:15:12;;;;;;;0.00;0.00;;;13.60;99.90;;;;;;5091398;28;20212;-59
2023/08/08 03:17:38;;;;;;;0.00;0.00;;;13.60;99.90;;;;;;5094515;28;20179;-59
2023/08/08 03:20:06;;;;;;;0.00;0.00;;;13.60;99.90;;;;;;5095410;28;20168;-59
2023/08/08 03:22:31;;;;;;;0.00;0.00;;;13.60;99.90;;;;;;5095591;28;20176;-59
2023/08/08 03:24:57;;;;;;;0.00;0.00;;;13.60;99.90;;;;;;5095411;28;20546;-59
2023/08/08 03:27:22;;;;;;;0.00;0.00;;;13.60;99.90;;;;;;5095148;28;20635;-59
2023/08/08 03:29:48;;;;;;;0.00;0.00;;;13.60;99.90;;;;;;5095172;28;20232;-59
2023/08/08 03:32:13;;;;;;;0.00;0.00;;;13.60;99.90;;;;;;5095249;28;20169;-59
2023/08/08 03:34:39;;;;;;;0.20;0.20;;;13.60;99.90;;;;;;5095059;28;20232;-59
2023/08/08 03:37:05;;;;;;;0.00;0.00;;;13.60;99.90;;;;;;5095177;28;20184;-59
2023/08/08 03:39:30;;;;;;;0.00;0.00;;;13.60;99.90;;;;;;5095376;28;20188;-59
2023/08/08 03:41:56;;;;;;;0.00;0.00;;;13.60;99.90;;;;;;5095166;28;20172;-59
2023/08/08 03:44:22;;;;;;;0.00;0.00;;;13.60;99.90;;;;;;5094966;28;20175;-59
2023/08/08 03:46:47;;;;;;;0.00;0.00;;;13.60;99.90;;;;;;5095043;28;20173;-59
2023/08/08 03:49:13;;;;;;;0.00;0.00;;;13.70;99.90;;;;;;5094988;28;20200;-59
2023/08/08 03:51:38;;;;;;;0.00;0.00;;;13.70;99.90;;;;;;5094989;28;20218;-59
2023/08/08 03:54:04;;;;;;;0.00;0.00;;;13.70;99.90;;;;;;5094859;28;20199;-59
2023/08/08 03:56:29;;;;;;;0.00;0.00;;;13.70;99.90;;;;;;5094871;28;20207;-59
2023/08/08 03:58:56;;;;;;;0.00;0.00;;;13.70;99.90;;;;;;5094840;28;20561;-59
2023/08/08 04:01:22;;;;;;;0.00;0.00;;;13.70;99.90;;;;;;5094693;28;20192;-59
2023/08/08 04:03:47;;;;;;;0.00;0.00;;;13.70;99.90;;;;;;5094681;28;20176;-59
2023/08/08 04:06:13;;;;;;;0.00;0.00;;;13.60;99.90;;;;;;5094552;28;20180;-59
2023/08/08 04:08:38;;;;;;;0.00;0.00;;;13.60;99.90;;;;;;5094733;28;20187;-59
2023/08/08 04:11:04;;;;;;;0.00;0.00;;;13.50;99.90;;;;;;5094514;28;20180;-59
2023/08/08 04:13:29;;;;;;;0.00;0.00;;;13.60;99.90;;;;;;5094604;28;20201;-59
2023/08/08 04:15:55;;;;;;;0.00;0.00;;;13.60;99.90;;;;;;5094371;28;20299;-58
2023/08/08 04:18:20;;;;;;;0.00;0.00;;;13.60;99.90;;;;;;5094208;28;20176;-59
2023/08/08 04:20:49;;;;;;;0.00;0.00;;;13.60;99.90;;;;;;5094393;28;20255;-59
2023/08/08 04:23:14;;;;;;;0.00;0.00;;;13.70;99.90;;;;;;5094311;28;20255;-59
2023/08/08 04:25:40;;;;;;;0.00;0.00;;;13.70;99.90;;;;;;5092666;28;20666;-59
2023/08/08 04:28:06;;;;;;;0.00;0.00;;;13.70;99.90;;;;;;5092791;28;20247;-59
2023/08/08 04:30:31;;;;;;;0.00;0.00;;;13.80;99.90;;;;;;5093904;28;20263;-59
2023/08/08 04:32:57;;;;;;;0.00;0.00;;;13.80;99.90;;;;;;5093749;28;20176;-59
2023/08/08 04:35:22;;;;;;;0.00;0.00;;;13.90;99.90;;;;;;5093477;28;20694;-59
2023/08/08 04:37:48;;;;;;;0.00;0.00;;;13.90;99.90;;;;;;5093741;28;20172;-59
2023/08/08 04:40:13;;;;;;;0.00;0.00;;;14.00;99.90;;;;;;5093540;28;20227;-59
2023/08/08 04:42:39;;;;;;;0.00;0.00;;;14.00;99.90;;;;;;5093492;28;20666;-59
2023/08/08 04:45:06;;;;;;;0.00;0.00;;;14.10;99.90;;;;;;5093548;28;20217;-59
2023/08/08 04:47:31;;;;;;;0.00;0.00;;;14.10;99.90;;;;;;5093555;28;20176;-59
2023/08/08 04:49:57;;;;;;;0.00;0.00;;;14.10;99.90;;;;;;5093360;28;20191;-59
2023/08/08 04:52:22;;;;;;;0.00;0.00;;;14.10;99.90;;;;;;5093395;28;20256;-59
2023/08/08 04:54:48;;;;;;;0.00;0.00;;;14.10;99.90;;;;;;5093211;28;20236;-59
2023/08/08 04:57:14;;;;;;;0.00;0.00;;;14.10;99.90;;;;;;5093117;28;20175;-59
2023/08/08 04:59:39;;;;;;;0.00;0.00;;;14.10;99.90;;;;;;5093277;28;20176;-59
2023/08/08 05:02:05;;;;;;;0.00;0.00;;;14.20;99.90;;;;;;5093134;28;20183;-59
2023/08/08 05:04:30;;;;;;;0.00;0.00;;;14.20;99.90;;;;;;5093077;28;20173;-59
2023/08/08 05:06:57;;;;;;;0.08;0.08;;;14.20;99.90;;;;;;5092932;28;20176;-59
2023/08/08 05:09:26;;;;;;;0.00;0.00;;;14.30;99.90;;;;;;5092958;28;20188;-59
2023/08/08 05:11:54;;;;;;;0.00;0.00;;;14.50;99.90;;;;;;5092778;28;20696;-59
2023/08/08 05:14:20;;;;;;;0.00;0.00;;;14.60;99.90;;;;;;5092902;28;20575;-59
2023/08/08 05:16:46;;;;;;;0.00;0.00;;;14.90;99.90;;;;;;5092752;28;20212;-59
2023/08/08 05:19:11;;;;;;;0.00;0.00;;;15.10;99.90;;;;;;5092854;28;20432;-59
2023/08/08 05:21:37;;;;;;;0.00;0.00;;;15.20;99.90;;;;;;5092605;28;20178;-58
2023/08/08 05:24:03;;;;;;;0.00;0.00;;;15.50;99.90;;;;;;5092765;28;20677;-59
2023/08/08 05:26:28;;;;;;;0.00;0.00;;;15.80;99.90;;;;;;5092839;28;20180;-59
2023/08/08 05:28:54;;;;;;;0.00;0.00;;;16.10;99.90;;;;;;5091099;28;20223;-59
2023/08/08 05:31:20;;;;;;;0.00;0.00;;;16.30;99.90;;;;;;5092605;28;20180;-59
2023/08/08 05:33:45;;;;;;;0.00;0.00;;;16.60;99.90;;;;;;5092602;28;20195;-59
2023/08/08 05:36:11;;;;;;;0.00;0.00;;;16.70;99.90;;;;;;5092514;28;20219;-59
2023/08/08 05:38:36;;;;;;;0.00;0.00;;;17.00;99.90;;;;;;5092450;28;20259;-59
2023/08/08 05:41:02;;;;;;;0.00;0.00;;;17.10;99.90;;;;;;5092334;28;20203;-59
2023/08/08 05:43:27;;;;;;;0.00;0.00;;;17.30;99.90;;;;;;5092323;28;20195;-59
2023/08/08 05:45:53;;;;;;;0.00;0.00;;;17.60;99.90;;;;;;5092176;28;20650;-59
2023/08/08 05:48:19;;;;;;;0.00;0.00;;;17.90;99.90;;;;;;5092279;28;20220;-59
2023/08/08 05:50:44;;;;;;;0.00;0.00;;;18.10;99.90;;;;;;5092243;28;20172;-59
2023/08/08 05:53:10;;;;;;;0.00;0.00;;;18.30;99.90;;;;;;5092211;28;20266;-59
2023/08/08 05:55:35;;;;;;;0.00;0.00;;;18.50;99.90;;;;;;5091976;28;20200;-59
2023/08/08 05:58:01;;;;;;;0.00;0.00;;;18.70;99.90;;;;;;5092135;28;20176;-59
2023/08/08 06:00:27;;;;;;;0.00;0.00;;;18.90;99.90;;;;;;5092099;28;20529;-59
2023/08/08 06:02:52;;;;;;;0.00;0.00;;;19.10;99.90;;;;;;5092055;28;20191;-59
2023/08/08 06:05:21;;;;;;;0.00;0.00;;;19.40;99.90;;;;;;5091863;28;20176;-60
2023/08/08 06:07:46;;;;;;;0.00;0.00;;;19.80;99.90;;;;;;5091895;28;20176;-59
2023/08/08 06:10:12;;;;;;;0.00;0.00;;;20.10;99.90;;;;;;5091920;28;20365;-59
2023/08/08 06:12:38;;;;;;;0.00;0.00;;;20.50;99.60;;;;;;5091747;28;20168;-59
2023/08/08 06:15:04;;;;;;;0.00;0.00;;;21.00;98.90;;;;;;5091803;28;20229;-59
2023/08/08 06:17:29;;;;;;;0.10;0.10;;;21.20;98.20;;;;;;5091867;28;20187;-59
2023/08/08 06:19:56;;;;;;;0.00;0.00;;;21.40;97.50;;;;;;5091758;28;20671;-59
2023/08/08 06:22:22;;;;;;;0.00;0.00;;;21.50;96.70;;;;;;5091731;28;20686;-59
2023/08/08 06:24:48;;;;;;;0.00;0.00;;;21.60;96.40;;;;;;5091782;28;20176;-59
2023/08/08 06:27:13;;;;;;;0.00;0.00;;;21.70;96.00;;;;;;5091521;28;20182;-59
2023/08/08 06:29:39;;;;;;;0.00;0.00;;;21.70;95.70;;;;;;5091632;28;20223;-59
2023/08/08 06:32:05;;;;;;;0.00;0.00;;;21.50;95.30;;;;;;5091601;28;20182;-58
2023/08/08 06:34:30;;;;;;;0.00;0.00;;;21.20;94.90;;;;;;5091673;28;20527;-59
2023/08/08 06:36:56;;;;;;;0.00;0.00;;;21.10;95.60;;;;;;5091388;28;20243;-59
2023/08/08 06:39:21;;;;;;;0.00;0.00;;;21.40;95.60;;;;;;5091846;28;20187;-59
2023/08/08 06:41:47;;;;;;;0.00;0.00;;;21.60;95.10;;;;;;5091911;28;20209;-59
2023/08/08 06:44:13;;;;;;;0.00;0.00;;;21.80;95.00;;;;;;5091769;28;20208;-59
2023/08/08 06:46:38;;;;;;;0.00;0.00;;;21.90;94.60;;;;;;5091844;28;20176;-59
2023/08/08 06:49:04;;;;;;;0.00;0.00;;;21.90;93.70;;;;;;5091826;28;20168;-59
2023/08/08 06:51:30;;;;;;;0.10;0.10;;;21.80;93.90;;;;;;5094465;28;20171;-59
2023/08/08 06:53:56;;;;;;;0.00;0.00;;;21.30;93.90;;;;;;5098366;28;20539;-59
2023/08/08 06:56:21;;;;;;;0.00;0.00;;;21.00;94.70;;;;;;5098384;28;20231;-59
2023/08/08 06:58:47;;;;;;;0.00;0.00;;;21.00;95.20;;;;;;5098483;28;20172;-59
2023/08/08 07:01:13;;;;;;;0.00;0.00;;;21.00;94.70;;;;;;5098309;28;20604;-59
2023/08/08 07:03:39;;;;;;;0.00;0.00;;;21.00;94.80;;;;;;5098509;28;20172;-59
2023/08/08 07:06:05;;;;;;;0.10;0.10;;;20.90;95.10;;;;;;5098281;28;20532;-59
2023/08/08 07:08:31;;;;;;;0.00;0.00;;;20.80;95.00;;;;;;5098513;28;20341;-59
2023/08/08 07:10:57;;;;;;;0.00;0.00;;;20.40;95.20;;;;;;5098208;28;20215;-59
2023/08/08 07:13:23;;;;;;;0.00;0.00;;;20.30;95.50;;;;;;5098286;28;20215;-59
2023/08/08 07:15:49;;;;;;;0.00;0.00;;;20.50;95.20;;;;;;5098291;28;20251;-59
2023/08/08 07:18:15;;;;;;;0.00;0.00;;;21.00;95.30;;;;;;5098125;28;20203;-59
2023/08/08 07:20:40;;;;;;;0.00;0.00;;;21.50;95.00;;;;;;5098384;28;20180;-59
2023/08/08 07:23:06;;;;;;;0.00;0.00;;;21.80;94.20;;;;;;5098188;28;20514;-59
2023/08/08 07:25:31;;;;;;;0.00;0.00;;;21.90;93.70;;;;;;5098448;28;20263;-59
2023/08/08 07:27:57;;;;;;;0.00;0.00;;;22.20;93.20;;;;;;5097915;28;20219;-59
2023/08/08 07:30:24;;;;;;;0.00;0.00;;;22.50;92.60;;;;;;5098182;28;20179;-59
2023/08/08 07:32:49;;;;;;;0.00;0.00;;;22.50;91.90;;;;;;5098193;28;20693;-59
2023/08/08 07:35:15;;;;;;;0.00;0.00;;;22.90;91.70;;;;;;5097893;28;20215;-59
2023/08/08 07:37:43;;;;;;;0.00;0.00;;;23.40;91.60;;;;;;5098232;28;20207;-59
2023/08/08 07:40:20;;;;;;;0.00;0.00;;;23.70;91.00;;;;;;5098001;28;20242;-59
2023/08/08 07:42:47;;;;;;;0.00;0.00;;;24.20;89.70;;;;;;5098213;28;20210;-59
2023/08/08 07:45:12;;;;;;;0.00;0.00;;;24.50;88.40;;;;;;5098039;28;20179;-59
2023/08/08 07:47:38;;;;;;;0.00;0.00;;;24.90;86.40;;;;;;5097990;28;20168;-59
2023/08/08 07:50:04;;;;;;;0.00;0.00;;;25.00;84.20;;;;;;5097873;28;20263;-59
2023/08/08 07:52:30;;;;;;;0.00;0.00;;;24.70;82.60;;;;;;5098020;28;20225;-59
2023/08/08 07:54:55;;;;;;;0.00;0.00;;;24.40;80.80;;;;;;5097830;28;20178;-59
2023/08/08 07:57:20;;;;;;;0.00;0.00;;;23.30;81.70;;;;;;5097840;28;20234;-58
2023/08/08 07:59:46;;;;;;;0.00;0.00;;;22.30;84.50;;;;;;5097979;28;20509;-59
2023/08/08 08:02:11;;;;;;;0.00;0.00;;;21.60;87.90;;;;;;5097343;28;20179;-59
2023/08/08 08:04:37;;;;;;;0.00;0.00;;;21.30;90.00;;;;;;5093721;28;20180;-59
2023/08/08 08:07:03;;;;;;;0.00;0.00;;;21.10;90.50;;;;;;5094669;28;20208;-59
2023/08/08 08:09:29;;;;;;;0.00;0.00;;;21.00;90.90;;;;;;5094897;28;20595;-59
2023/08/08 08:11:54;;;;;;;0.00;0.00;;;20.70;91.50;;;;;;5094569;28;20172;-59
2023/08/08 08:14:21;;;;;;;0.00;0.00;;;20.70;92.40;;;;;;5094558;28;20184;-59
2023/08/08 08:16:48;;;;;;;0.00;0.00;;;20.80;92.50;;;;;;5094397;28;20280;-59
2023/08/08 08:19:13;;;;;;;0.00;0.00;;;20.90;92.90;;;;;;5094327;28;20183;-58
2023/08/08 08:21:39;;;;;;;0.00;0.00;;;21.20;93.00;;;;;;5094476;28;20172;-59
2023/08/08 08:24:05;;;;;;;0.00;0.00;;;21.30;91.80;;;;;;5094371;28;20221;-59
2023/08/08 08:26:31;;;;;;;0.30;0.30;;;21.40;91.90;;;;;;5094582;28;20528;-59
2023/08/08 08:28:57;;;;;;;0.20;0.20;;;21.60;91.60;;;;;;5093965;28;20243;-59
2023/08/08 08:31:23;;;;;;;0.00;0.00;;;21.80;91.60;;;;;;5094024;28;20196;-59
2023/08/08 08:33:48;;;;;;;0.00;0.00;;;22.10;91.60;;;;;;5094195;28;20221;-59
2023/08/08 08:36:14;;;;;;;0.00;0.00;;;22.20;91.20;;;;;;5093869;28;20223;-59
2023/08/08 08:38:39;;;;;;;0.00;0.00;;;22.30;90.50;;;;;;5094212;28;20213;-59
2023/08/08 08:41:05;;;;;;;0.00;0.00;;;22.30;90.50;;;;;;5094062;28;20180;-59
2023/08/08 08:43:31;;;;;;;0.00;0.00;;;22.30;90.90;;;;;;5094117;28;20191;-59
2023/08/08 08:46:00;;;;;;;0.00;0.00;;;22.40;90.80;;;;;;5093791;28;20631;-58
2023/08/08 08:48:25;;;;;;;0.00;0.00;;;22.10;89.80;;;;;;5093840;28;20169;-59
2023/08/08 08:50:51;;;;;;;0.00;0.00;;;21.90;90.40;;;;;;5093923;28;20712;-59
2023/08/08 08:53:17;;;;;;;0.00;0.00;;;21.70;90.90;;;;;;5093619;28;20176;-59
2023/08/08 08:55:44;;;;;;;0.00;0.00;;;21.50;90.90;;;;;;5093675;28;20261;-59
2023/08/08 08:58:10;;;;;;;0.00;0.00;;;21.50;91.40;;;;;;5093709;28;20218;-59
2023/08/08 09:00:36;;;;;;;0.00;0.00;;;21.50;91.00;;;;;;5093554;28;20176;-59
2023/08/08 09:03:03;;;;;;;0.00;0.00;;;21.50;91.30;;;;;;5093668;28;20601;-59
2023/08/08 09:05:29;;;;;;;0.00;0.00;;;21.90;90.90;;;;;;5093477;28;20183;-59
2023/08/08 09:07:55;;;;;;;0.00;0.00;;;22.10;90.80;;;;;;5093448;28;20168;-59
2023/08/08 09:10:21;;;;;;;0.00;0.00;;;22.10;90.00;;;;;;5093392;28;20181;-59
2023/08/08 09:12:47;;;;;;;0.00;0.00;;;22.20;90.20;;;;;;5093406;28;20190;-59
2023/08/08 09:15:12;;;;;;;0.00;0.00;;;22.30;90.50;;;;;;5093101;28;20291;-59
2023/08/08 09:17:43;;;;;;;0.10;0.10;;;22.40;90.60;;;;;;5093123;28;20184;-59
2023/08/08 09:20:10;;;;;;;0.00;0.00;;;22.50;90.30;;;;;;5093180;28;20627;-59
2023/08/08 09:22:37;;;;;;;0.00;0.00;;;22.50;90.10;;;;;;5093170;28;20184;-59
2023/08/08 09:25:03;;;;;;;0.00;0.00;;;22.40;90.00;;;;;;5093054;28;20589;-59
2023/08/08 09:27:29;;;;;;;0.00;0.00;;;22.50;90.30;;;;;;5093174;28;20646;-59
2023/08/08 09:29:54;;;;;;;0.00;0.00;;;22.70;90.60;;;;;;5092765;28;20228;-59
2023/08/08 09:32:20;;;;;;;0.00;0.00;;;23.10;91.10;;;;;;5093054;28;20643;-59
2023/08/08 09:34:46;;;;;;;0.00;0.00;;;23.50;90.00;;;;;;5092964;28;20575;-59
2023/08/08 09:37:11;;;;;;;0.00;0.00;;;23.50;87.70;;;;;;5092793;28;20182;-59
2023/08/08 09:39:37;;;;;;;0.00;0.00;;;23.70;87.70;;;;;;5092866;28;20167;-58
2023/08/08 09:42:06;;;;;;;0.00;0.00;;;23.70;85.60;;;;;;5092826;28;20561;-59
2023/08/08 09:44:34;;;;;;;0.00;0.00;;;23.50;86.40;;;;;;5092790;28;20538;-59
2023/08/08 09:47:00;;;;;;;0.00;0.00;;;23.10;86.90;;;;;;5092785;28;20176;-59
2023/08/08 09:49:27;;;;;;;0.00;0.00;;;23.20;87.40;;;;;;5092691;28;20654;-59
2023/08/08 09:51:52;;;;;;;0.00;0.00;;;23.60;88.40;;;;;;5092757;28;20172;-59
2023/08/08 09:54:19;;;;;;;0.00;0.00;;;23.90;85.00;;;;;;5092557;28;20180;-59
2023/08/08 09:56:45;;;;;;;0.00;0.00;;;23.90;82.80;;;;;;5092558;28;20220;-59
2023/08/08 09:59:12;;;;;;;0.00;0.00;;;24.00;81.80;;;;;;5092502;28;20535;-59
2023/08/08 10:01:40;;;;;;;0.00;0.00;;;24.30;82.30;;;;;;5092454;28;20762;-59
2023/08/08 10:04:06;;;;;;;0.00;0.00;;;24.20;78.90;;;;;;5092460;28;20529;-59
2023/08/08 10:06:32;;;;;;;0.00;0.00;;;24.30;81.90;;;;;;5092434;28;20628;-59
2023/08/08 10:08:58;;;;;;;0.00;0.00;;;24.20;78.90;;;;;;5092279;28;20203;-59
2023/08/08 10:11:25;;;;;;;0.00;0.00;;;24.30;79.40;;;;;;5092308;28;20526;-59
2023/08/08 10:13:53;;;;;;;0.00;0.00;;;24.50;78.80;;;;;;5092387;28;20593;-59
2023/08/08 10:16:19;;;;;;;0.00;0.00;;;24.60;78.10;;;;;;5092144;28;20222;-59
2023/08/08 10:18:56;;;;;;;0.00;0.00;;;24.20;76.30;;;;;;5092261;28;20176;-59
2023/08/08 10:21:24;;;;;;;0.00;0.00;;;24.00;78.70;;;;;;5092270;28;20182;-59
2023/08/08 10:23:49;;;;;;;0.00;0.00;;;23.80;80.20;;;;;;5092227;28;20208;-59
2023/08/08 10:26:21;;;;;;;0.00;0.00;;;23.90;81.90;;;;;;5091276;28;20211;-59
2023/08/08 10:28:56;;;;;;;0.00;0.00;;;23.80;80.50;;;;;;5091883;28;20232;-59
2023/08/08 10:31:21;;;;;;;0.00;0.00;;;23.80;78.30;;;;;;5092017;28;20207;-59
2023/08/08 10:33:47;;;;;;;0.00;0.00;;;23.80;78.50;;;;;;5092124;28;20211;-59
2023/08/08 10:36:13;;;;;;;0.00;0.00;;;23.80;78.80;;;;;;5091951;28;20220;-59
2023/08/08 10:38:50;;;;;;;0.00;0.00;;;23.90;79.60;;;;;;5092029;28;20172;-59
2023/08/08 10:41:20;;;;;;;0.00;0.00;;;24.10;80.30;;;;;;5091722;28;20202;-59
2023/08/08 10:43:56;;;;;;;0.00;0.00;;;24.20;77.00;;;;;;5091980;28;20172;-59
2023/08/08 10:46:29;;;;;;;0.10;0.10;;;24.20;75.80;;;;;;5091845;28;20203;-59
2023/08/08 10:48:59;;;;;;;0.00;0.00;;;24.00;78.00;;;;;;5091822;28;20172;-59
2023/08/08 10:51:36;;;;;;;0.00;0.00;;;24.40;76.90;;;;;;5091688;28;20223;-59
2023/08/08 10:54:09;;;;;;;0.00;0.00;;;24.50;76.80;;;;;;5091776;28;20176;-59
2023/08/08 10:56:36;;;;;;;0.00;0.00;;;24.60;75.40;;;;;;5091664;28;20208;-59
2023/08/08 10:59:14;;;;;;;0.00;0.00;;;24.80;70.80;;;;;;5091763;28;20179;-59
2023/08/08 11:01:40;;;;;;;0.00;0.00;;;24.80;69.90;;;;;;5091760;28;20647;-59
2023/08/08 11:04:06;;;;;;;0.00;0.00;;;24.70;70.40;;;;;;5091596;28;20270;-59
2023/08/08 11:06:33;;;;;;;0.00;0.00;;;24.70;71.60;;;;;;5091720;28;20200;-59
2023/08/08 11:09:00;;;;;;;0.00;0.00;;;24.80;72.40;;;;;;5091655;28;20635;-59
2023/08/08 11:11:26;;;;;;;0.00;0.00;;;25.00;72.30;;;;;;5091504;28;20218;-59
2023/08/08 11:13:52;;;;;;;0.00;0.00;;;24.70;70.70;;;;;;5091655;28;20208;-60
2023/08/08 11:16:19;;;;;;;0.00;0.00;;;24.80;73.20;;;;;;5091296;28;20257;-59
2023/08/08 11:18:45;;;;;;;0.00;0.00;;;24.90;70.60;;;;;;5091496;28;20165;-59
2023/08/08 11:21:11;;;;;;;0.00;0.00;;;25.00;68.60;;;;;;5091592;28;20237;-59
2023/08/08 11:23:38;;;;;;;0.00;0.00;;;25.10;68.70;;;;;;5091503;28;20180;-59
2023/08/08 11:26:04;;;;;;;0.00;0.00;;;24.90;69.60;;;;;;5091517;28;20191;-59
2023/08/08 11:28:29;;;;;;;0.00;0.00;;;25.00;69.20;;;;;;5091256;28;20223;-59
2023/08/08 11:30:55;;;;;;;0.00;0.00;;;24.90;67.60;;;;;;5091296;28;20180;-59
2023/08/08 11:33:22;;;;;;;0.00;0.00;;;25.10;67.70;;;;;;5091354;28;20277;-59
2023/08/08 11:35:49;;;;;;;0.00;0.00;;;25.40;67.20;;;;;;5091319;28;20212;-59
2023/08/08 11:38:15;;;;;;;0.00;0.00;;;25.50;65.20;;;;;;5093490;28;20178;-59
2023/08/08 11:40:41;;;;;;;0.00;0.00;;;25.30;65.00;;;;;;5095295;28;20176;-59
2023/08/08 11:43:07;;;;;;;0.00;0.00;;;25.30;64.90;;;;;;5095118;28;20176;-59
2023/08/08 11:45:33;;;;;;;0.00;0.00;;;25.20;64.00;;;;;;5095269;28;20184;-59
2023/08/08 11:47:59;;;;;;;0.00;0.00;;;25.20;62.50;;;;;;5095034;28;20176;-59
2023/08/08 11:50:28;;;;;;;0.00;0.00;;;25.10;63.20;;;;;;5094996;28;20176;-59
2023/08/08 11:52:54;;;;;;;0.00;0.00;;;24.90;63.00;;;;;;5094938;28;20188;-59
2023/08/08 11:55:23;;;;;;;0.00;0.00;;;25.10;62.30;;;;;;5094663;28;20540;-59
2023/08/08 11:57:49;;;;;;;0.00;0.00;;;25.00;59.60;;;;;;5094932;28;20543;-59
2023/08/08 12:00:16;;;;;;;0.00;0.00;;;24.90;62.20;;;;;;5094607;28;20666;-59
2023/08/08 12:02:45;;;;;;;0.00;0.00;;;24.80;60.10;;;;;;5094750;28;20180;-59
2023/08/08 12:05:16;;;;;;;0.00;0.00;;;24.70;58.10;;;;;;5094672;28;20230;-59
2023/08/08 12:07:44;;;;;;;0.00;0.00;;;24.70;59.20;;;;;;5094866;28;20188;-59
2023/08/08 12:10:16;;;;;;;0.00;0.00;;;24.80;61.20;;;;;;5094553;28;20694;-59
2023/08/08 12:12:41;;;;;;;0.00;0.00;;;24.70;61.40;;;;;;5094696;28;20594;-59
2023/08/08 12:15:08;;;;;;;0.00;0.00;;;25.00;64.30;;;;;;5094380;28;20168;-59
2023/08/08 12:17:34;;;;;;;0.00;0.00;;;25.20;63.70;;;;;;5094152;28;20211;-59
2023/08/08 12:20:00;;;;;;;0.00;0.00;;;25.30;61.40;;;;;;5094387;28;20176;-59
2023/08/08 12:22:26;;;;;;;0.00;0.00;;;25.40;59.10;;;;;;5094407;28;20678;-59
2023/08/08 12:24:52;;;;;;;0.00;0.00;;;25.40;61.00;;;;;;5094389;28;20172;-59
2023/08/08 12:27:17;;;;;;;0.00;0.00;;;25.50;60.90;;;;;;5094159;28;21280;-59
2023/08/08 12:29:44;;;;;;;0.20;0.03;;;25.70;60.20;;;;;;5094098;28;20250;-59
2023/08/08 12:32:09;;;;;;;0.00;0.00;;;25.30;58.90;;;;;;5094206;28;20655;-59
2023/08/08 12:34:35;;;;;;;0.00;0.00;;;25.00;59.80;;;;;;5094141;28;20179;-59
2023/08/08 12:37:01;;;;;;;0.00;0.00;;;24.90;60.70;;;;;;5094034;28;20210;-59
2023/08/08 12:39:27;;;;;;;0.00;0.00;;;24.80;61.00;;;;;;5094122;28;20180;-59
2023/08/08 12:41:52;;;;;;;0.00;0.00;;;25.10;63.10;;;;;;5094108;28;20172;-59